RAAF Base Richmond
YSRI : now visible

Airfield :











YOU CAN JOIN US ON...

 
LOGIN :

Register | Disclaimer

   EN    FR    IT 

 









Legend :    VFR   Marginal VFR   IFR   Intensive IFR   Very Intensive IFR
Visi :
Ceiling :
>= 8 km
>= 3000ft
5 to 8 km
1000 to 3000 ft
1500m to 5 km
500 to 1000 ft
800 to 1500m
200 to 500 ft
< 800m
< 200 ft
Symbols :   Thunderstorms  Fog  Heavy snow  Heavy precipitations  Wind > 20 kt






- Airport Elevation : 67 ft


YSRI - RAAF Base Richmond

CURRENT METAR :
  • 182100Z AUTO 00000KT 0450 // OVC001 03/03 Q1029

EXPIRED METARs :
  • 182037Z AUTO 00000KT 6000 // BKN001 03/02 Q1029 RF00.0/000.0
  • 182000Z AUTO 00000KT 9999 // SCT001 03/03 Q1028 RF00.0/000.0
  • 181943Z AUTO 00000KT 9999 // SCT004 02/02 Q1028 RF00.0/000.0
  • 181928Z AUTO 00000KT 9999 // BKN003 03/02 Q1028
  • 181900Z AUTO 00000KT 0400 // OVC001 04/03 Q1028
  • 181843Z AUTO 00000KT 5000 // BKN001 04/03 Q1028 RF00.0/000.0
  • 181839Z AUTO 00000KT 6000 // SCT001 03/03 Q1028 RF00.0/000.0

TAF AMD TAF YSRI
Valid from the 18 at 21:00 until the 19 at 18:00 UTC


182109Z 1821/1918 VRB03KT 0300 FG BKN001
BECMG 1822/1900 VRB04KT CAVOK
FM190100 05005KT CAVOK
FM190800 VRB03KT CAVOK
PROB30 1916/1918 0300 FG BKN001
YMMM FIR / Oceania



MET'MAP, your aeronautical weather chart ! - Copyright ORBIFLY December 2007 - Disclaimer

ORBIFLY MET'MAP TEAM :

Programming & Development : Alexandra Zaïnal
Concept & original design : Baudouin d'Aumeries
Assistance for programming : Marc-Olivier Méhu
Technical & hardware support : Manuel Goepfert

Contact : metmap@orbifly.com




SOURCES & CREDITS :

   NOAA       Earth
Advisory